• Join FlightAware (Why Join?)
  • Login
  • US Flag GB Flag 
19:44 EST


 

Airport Tracker/Info


-or-


 

Live Flight TrackerFlight Track Log ✈ N702LK ✈ 19-Aug-2014 ✈ KRST - KBRD

Flight Track Log - Related Links

Times and Time Zones

All times are in EDT time to prevent confusion due to time zone crossing. See the N702LK flight status page for this flight to view local times or setup timezone preferences in your user account.

Time Position Orientation Groundspeed Altitude Reporting Facility
EDT Latitude Longitude Course Direction KTS MPH feet Rate Location/Type
13:57 43.9578 -92.5395 332° Northwest 223 257 5,500  Level FlightAware ADS-B (KSGS)
13:57 43.9734 -92.5515 332° Northwest 245 282 6,300 3,360 Climbing FlightAware ADS-B (KSGS)
13:58 43.9876 -92.5623 332° Northwest 256 295 7,200 3,960 Climbing FlightAware ADS-B (KSGS)
13:58 44.0035 -92.5744 332° Northwest 264 304 8,300 4,200 Climbing FlightAware ADS-B (KSGS)
13:58 44.0204 -92.5866 334° Northwest 269 310 9,300 4,140 Climbing FlightAware ADS-B (KSGS)
13:58 44.0453 -92.6034 334° Northwest 272 313 11,000 3,720 Climbing FlightAware ADS-B (KFCM)
13:59 44.0615 -92.6142 335° Northwest 293 337 11,500 2,040 Climbing FlightAware ADS-B (KSGS)
13:59 44.1007 -92.6410 334° Northwest 336 387 12,400 2,580 Climbing FlightAware ADS-B (KSGS)
14:00 44.1440 -92.6704 334° Northwest 351 404 14,100 3,180 Climbing FlightAware ADS-B (KSGS)
14:00 44.1873 -92.7005 334° Northwest 360 414 15,600 3,000 Climbing FlightAware ADS-B (KSGS)
14:01 44.2347 -92.7327 334° Northwest 372 428 17,200 3,180 Climbing FlightAware ADS-B (KSGS)
14:01 44.2771 -92.7614 334° Northwest 377 434 18,800 3,180 Climbing FlightAware ADS-B (KFCM)
14:01 44.2816 -92.7643 335° Northwest 377 434 18,800 3,060 Level FlightAware ADS-B (KSGS)
14:02 44.3282 -92.7968 333° Northwest 387 445 20,500 2,640 Climbing FlightAware ADS-B (KFCM)
14:03 44.4423 -92.8762 333° Northwest 420 483 23,200 1,980 Climbing FlightAware ADS-B (KFCM)
14:03 44.5106 -92.9240 334° Northwest 424 488 24,000 1,140 Climbing FlightAware ADS-B (KFCM)
14:04 44.5169 -92.9284 334° Northwest 422 486 24,000  Level FlightAware ADS-B (KSGS)
14:04 44.5742 -92.9685 333° Northwest 414 476 24,000  Level FlightAware ADS-B (KFCM)
14:04 44.5929 -92.9817 334° Northwest 412 474 24,000  Level FlightAware ADS-B (KSGS)
14:05 44.6440 -93.0171 334° Northwest 408 470 24,000  Level FlightAware ADS-B (KSGS)
14:05 44.6490 -93.0206 333° Northwest 408 470 24,000  Level FlightAware ADS-B (KFCM)
14:05 44.6945 -93.0526 334° Northwest 407 468 24,000  Level FlightAware ADS-B (KSGS)
14:06 44.7138 -93.0660 334° Northwest 409 471 24,000  Level FlightAware ADS-B (KFCM)
14:06 44.7784 -93.1117 333° Northwest 411 473 24,000  Level FlightAware ADS-B (KSGS)
14:06 44.7869 -93.1178 333° Northwest 411 473 24,000  Level FlightAware ADS-B (KFCM)
14:07 44.8292 -93.1477 334° Northwest 410 472 24,000  Level FlightAware ADS-B (KSGS)
14:07 44.8435 -93.1578 334° Northwest 412 474 24,000  Level FlightAware ADS-B (KFCM)
14:07 44.8813 -93.1843 334° Northwest 411 473 24,000  Level FlightAware ADS-B (KSGS)
14:07 44.9208 -93.2125 333° Northwest 413 475 24,000  Level FlightAware ADS-B (KFCM)
14:08 44.9324 -93.2206 334° Northwest 412 474 24,000  Level FlightAware ADS-B (KSGS)
14:08 44.9839 -93.2568 334° Northwest 411 473 24,000  Level FlightAware ADS-B (KSGS)
14:08 44.9907 -93.2617 333° Northwest 411 473 24,000  Level FlightAware ADS-B (KFCM)
14:09 45.0346 -93.2932 334° Northwest 408 470 24,000  Level FlightAware ADS-B (KSGS)
14:09 45.0565 -93.3088 333° Northwest 408 470 24,000  Level FlightAware ADS-B (KFCM)
14:09 45.0845 -93.3287 334° Northwest 407 468 24,000  Level FlightAware ADS-B (KSGS)
14:09 45.1255 -93.3581 333° Northwest 408 470 24,000  Level FlightAware ADS-B (KFCM)
14:10 45.1350 -93.3649 334° Northwest 408 470 24,000  Level FlightAware ADS-B (KSGS)
14:10 45.1942 -93.4022 338° Northwest 407 468 24,000 -120 Level FlightAware ADS-B (KFCM)
14:10 45.2215 -93.4178 338° Northwest 407 468 23,900 -1,620 Descending FlightAware ADS-B (KSGS)
14:11 45.2603 -93.4402 337° Northwest 401 461 23,000 -2,400 Descending FlightAware ADS-B (KFCM)
14:11 45.2733 -93.4480 337° Northwest 398 458 22,700 -2,400 Descending FlightAware ADS-B (KSGS)
14:11 45.3236 -93.4785 337° Northwest 393 452 21,500 -2,520 Descending FlightAware ADS-B (KSGS)
14:11 45.3279 -93.4811 337° Northwest 393 452 21,300 -2,220 Descending FlightAware ADS-B (KFCM)
14:12 45.3728 -93.5078 337° Northwest 385 443 20,400 -2,160 Descending FlightAware ADS-B (KSGS)
14:12 45.3930 -93.5203 336° Northwest 382 440 19,900 -2,280 Descending FlightAware ADS-B (KFCM)
14:12 45.4224 -93.5389 337° Northwest 374 430 19,300 -2,160 Descending FlightAware ADS-B (KSGS)
14:13 45.4556 -93.5592 337° Northwest 372 428 18,400 -2,220 Descending FlightAware ADS-B (KFCM)
14:13 45.4698 -93.5677 337° Northwest 370 426 18,200 -2,100 Descending FlightAware ADS-B (KSGS)
14:13 45.5164 -93.5959 338° Northwest 367 422 17,200 -2,040 Descending FlightAware ADS-B (KSGS)
14:14 45.5387 -93.6071 344° North 366 421 16,700 -1,980 Descending FlightAware ADS-B (KFCM)
14:14 45.5653 -93.6144 353° North 365 420 16,200 -2,280 Descending FlightAware ADS-B (KSGS)
14:14 45.6151 -93.6224 354° North 355 409 15,000 -2,340 Descending FlightAware ADS-B (KSGS)
14:15 45.6637 -93.6301 354° North 338 389 13,900 -2,220 Descending FlightAware ADS-B (KSGS)
14:15 45.7095 -93.6370 355° North 328 377 12,800 -2,340 Descending FlightAware ADS-B (KSGS)
14:16 45.7523 -93.6440 353° North 322 371 11,600 -2,460 Descending FlightAware ADS-B (KSGS)
14:16 45.7976 -93.6532 352° North 312 359 10,400 -1,680 Descending FlightAware ADS-B (KSGS)
14:17 45.8382 -93.6608 353° North 286 329 9,900 -1,080 Descending FlightAware ADS-B (KSGS)
14:17 45.8714 -93.6719 353° North 294 338 9,300 -660 Descending Minneapolis Center
14:19 45.9339 -93.7333 326° Northwest 275 316 8,900 -540 Descending Minneapolis Center
14:20 45.9989 -93.7894 329° Northwest 275 316 8,200 -1,320 Descending Minneapolis Center
14:21 46.0628 -93.8542 325° Northwest 275 316 6,200 -1,860 Descending Minneapolis Center
14:22 46.1242 -93.9100 328° Northwest 269 310 4,400 -1,140 Descending Minneapolis Center
14:23 46.2053 -93.9533 340° North 265 305 3,900 -540 Descending Minneapolis Center
14:24 46.2731 -93.9758 347° North 262 302 3,300 -480 Descending Minneapolis Center
14:25 46.3286 -93.9978 345° North 245 282 3,000 -300 Descending Minneapolis Center